Список аэропортов
Фактическая погода:

24 мая, 15:00
Температура: +10°C (+7.2*)
Ветер: сев.-западный 6 м/с
Давление: *760 мм
неб. облачность
900 м
Время (МСК)Темп. СВетерВлажностьДавлениеОблачностьОсадки
15:00+11СЗ, 3 м/с30%1013 гПаясно
16:00+11СЗ, 3 м/с31%1013 гПаясно
17:00+11СЗ, 3 м/с33%1014 гПаясно
18:00+10СЗ, 3 м/с35%1014 гПаясно
19:00+9СЗ, 2 м/с39%1015 гПаясно
20:00+8СЗ, 1 м/с51%1015 гПаясно
21:00+4З, 1 м/с84%1015 гПас прояснениями
22:00+2ЮЗ, 1 м/с93%1016 гПаясно
23:000ЮЗ, 1 м/с94%1016 гПаясно
25 мая
00:00-0Ю, 1 м/с96%1016 гПаясно
01:00-1Ю, 1 м/с98%1016 гПас прояснениями
02:00-2Ю, 1 м/с97%1017 гПас прояснениями
03:00-2Ю, 1 м/с97%1017 гПас прояснениями
04:00-2Ю, 1 м/с96%1017 гПаясно
05:000Ю, 1 м/с86%1017 гПаясно
06:00+3Ю, 2 м/с75%1017 гПаясно
07:00+7Ю, 2 м/с52%1016 гПаясно
08:00+10Ю, 3 м/с42%1016 гПаясно
09:00+13Ю, 3 м/с36%1015 гПаясно
10:00+14Ю, 3 м/с32%1015 гПаясно
11:00+15Ю, 3 м/с31%1014 гПаясно
12:00+16Ю, 3 м/с30%1014 гПаясно
13:00+16Ю, 3 м/с30%1013 гПаясно
14:00+17Ю, 3 м/с30%1012 гПаясно
15:00+17Ю, 3 м/с30%1011 гПамалооблачно
16:00+17Ю, 3 м/с31%1010 гПас прояснениями
17:00+17Ю, 3 м/с32%1009 гПаоблачно
18:00+16ЮВ, 2 м/с40%1008 гПаоблачно
19:00+15ЮВ, 2 м/с48%1007 гПаоблачно
20:00+12ЮВ, 2 м/с77%1006 гПаоблачносл. дождь
21:00+10ЮВ, 2 м/с94%1005 гПаоблачнодождь
22:00+10ЮВ, 3 м/с92%1003 гПаоблачнодождь
23:00+10ЮВ, 3 м/с93%1000 гПаоблачнодождь
26 мая
00:00+10ЮВ, 3 м/с95%998 гПаоблачнодождь
01:00+10ЮВ, 3 м/с97%997 гПаоблачнодождь
02:00+11Ю, 3 м/с98%996 гПаоблачнодождь
03:00+11ЮЗ, 4 м/с96%996 гПаясно
04:00+11ЮЗ, 3 м/с98%996 гПаоблачно
05:00+11Ю, 3 м/с97%996 гПаоблачно
06:00+11Ю, 4 м/с96%995 гПаоблачно
07:00+11ЮЗ, 4 м/с94%995 гПаоблачносл. дождь
08:00+11ЮЗ, 4 м/с94%995 гПаоблачнодождь
09:00+11ЮЗ, 4 м/с95%995 гПаоблачнодождь
10:00+11З, 4 м/с96%996 гПаоблачносл. дождь
11:00+11З, 4 м/с95%998 гПаоблачно
12:00+11З, 4 м/с93%999 гПаоблачно
13:00+12З, 3 м/с88%1000 гПас прояснениями
14:00+15З, 4 м/с64%1000 гПамалооблачно
15:00+17З, 2 м/с52%1001 гПаясно